Reykjavik, Iceland
Current Conditions -  °F | °C
As of 1:00 PM on Wednesday 26 Nov 2014 (Local Time) from BIRK Reporting Station
Rain Showers Rain Showers  
Wind Chill: 27°   Ceiling: Unl
Heat Index: 34°   Visibility: 6mi
Dew Point: 30°   Wind: 8mph
Humidity: 87%   Direction: 140°SE
Pressure: 29.47"   Gusts: NA
Location:  64.14°N, 21.92°W
Report Text: BIRK 261300Z 14007KT 9999 VCSH FEW026 01/M01 Q0998 R19/390195
Loading
Personal Weather Stations






























Interactive Weather Map New forecast layout! Learn more

10-Day Weather Forecast

Advertisements
Track Severe Weather on mobile